sensor_id;sensor_type;location;lat;lon;timestamp;pressure;altitude;pressure_sealevel;temperature;humidity
76853;BME280;65825;52.232;10.566;2022-12-16T00:02:00;100140.66;;;-7.92;81.65
76853;BME280;65825;52.232;10.566;2022-12-16T00:04:25;100144.06;;;-7.93;81.21
76853;BME280;65825;52.232;10.566;2022-12-16T00:06:50;100137.13;;;-7.96;81.03
76853;BME280;65825;52.232;10.566;2022-12-16T00:09:16;100145.06;;;-7.88;82.08
76853;BME280;65825;52.232;10.566;2022-12-16T00:11:41;100148.28;;;-7.94;81.40
76853;BME280;65825;52.232;10.566;2022-12-16T00:14:06;100147.16;;;-8.02;81.36
76853;BME280;65825;52.232;10.566;2022-12-16T00:16:32;100150.59;;;-8.01;81.67
76853;BME280;65825;52.232;10.566;2022-12-16T00:18:57;100149.97;;;-7.94;82.40
76853;BME280;65825;52.232;10.566;2022-12-16T00:21:22;100153.81;;;-7.82;83.92
76853;BME280;65825;52.232;10.566;2022-12-16T00:23:53;100154.97;;;-7.72;81.32
76853;BME280;65825;52.232;10.566;2022-12-16T00:26:20;100160.00;;;-7.75;79.12
76853;BME280;65825;52.232;10.566;2022-12-16T00:28:46;100160.81;;;-7.76;79.19
76853;BME280;65825;52.232;10.566;2022-12-16T00:31:13;100163.13;;;-7.84;78.88
76853;BME280;65825;52.232;10.566;2022-12-16T00:33:39;100173.00;;;-7.96;78.64
76853;BME280;65825;52.232;10.566;2022-12-16T00:36:05;100165.25;;;-7.97;79.24
76853;BME280;65825;52.232;10.566;2022-12-16T00:38:30;100168.41;;;-8.04;79.62
76853;BME280;65825;52.232;10.566;2022-12-16T00:40:55;100158.84;;;-8.10;80.18
76853;BME280;65825;52.232;10.566;2022-12-16T00:43:21;100167.19;;;-8.15;80.63
76853;BME280;65825;52.232;10.566;2022-12-16T00:45:46;100166.88;;;-8.26;81.65
76853;BME280;65825;52.232;10.566;2022-12-16T00:48:12;100173.06;;;-8.19;82.19
76853;BME280;65825;52.232;10.566;2022-12-16T00:50:37;100164.75;;;-8.12;82.37
76853;BME280;65825;52.232;10.566;2022-12-16T00:53:03;100167.25;;;-8.14;81.68
76853;BME280;65825;52.232;10.566;2022-12-16T00:55:29;100165.50;;;-8.15;80.64
76853;BME280;65825;52.232;10.566;2022-12-16T00:57:54;100165.16;;;-8.25;79.55
76853;BME280;65825;52.232;10.566;2022-12-16T01:00:20;100162.47;;;-8.30;79.47
76853;BME280;65825;52.232;10.566;2022-12-16T01:02:47;100162.25;;;-8.36;78.86
76853;BME280;65825;52.232;10.566;2022-12-16T01:05:15;100163.84;;;-8.39;78.70
76853;BME280;65825;52.232;10.566;2022-12-16T01:07:41;100168.91;;;-8.41;79.33
76853;BME280;65825;52.232;10.566;2022-12-16T01:10:07;100168.75;;;-8.45;78.75
76853;BME280;65825;52.232;10.566;2022-12-16T01:12:34;100174.31;;;-8.57;79.81
76853;BME280;65825;52.232;10.566;2022-12-16T01:14:59;100173.50;;;-8.56;80.17
76853;BME280;65825;52.232;10.566;2022-12-16T01:17:25;100179.63;;;-8.51;80.18
76853;BME280;65825;52.232;10.566;2022-12-16T01:19:51;100182.91;;;-8.55;80.51
76853;BME280;65825;52.232;10.566;2022-12-16T01:22:17;100186.63;;;-8.47;79.04
76853;BME280;65825;52.232;10.566;2022-12-16T01:24:43;100188.19;;;-8.50;80.24
76853;BME280;65825;52.232;10.566;2022-12-16T01:27:08;100190.84;;;-8.47;80.43
76853;BME280;65825;52.232;10.566;2022-12-16T01:29:33;100196.63;;;-8.53;79.18
76853;BME280;65825;52.232;10.566;2022-12-16T01:31:59;100197.50;;;-8.52;78.42
76853;BME280;65825;52.232;10.566;2022-12-16T01:34:24;100190.63;;;-8.53;78.35
76853;BME280;65825;52.232;10.566;2022-12-16T01:36:49;100195.31;;;-8.65;78.82
76853;BME280;65825;52.232;10.566;2022-12-16T01:39:14;100194.31;;;-8.69;78.85
76853;BME280;65825;52.232;10.566;2022-12-16T01:41:40;100191.53;;;-8.75;79.66
76853;BME280;65825;52.232;10.566;2022-12-16T01:44:21;100195.06;;;-8.73;79.46
76853;BME280;65825;52.232;10.566;2022-12-16T01:46:54;100197.69;;;-8.70;79.66
76853;BME280;65825;52.232;10.566;2022-12-16T01:52:03;100189.88;;;-8.74;79.41
76853;BME280;65825;52.232;10.566;2022-12-16T01:54:39;100191.72;;;-8.70;78.93
76853;BME280;65825;52.232;10.566;2022-12-16T01:57:11;100193.25;;;-8.75;79.96
76853;BME280;65825;52.232;10.566;2022-12-16T01:59:40;100192.38;;;-8.76;79.63
76853;BME280;65825;52.232;10.566;2022-12-16T02:02:06;100186.28;;;-8.79;79.35
76853;BME280;65825;52.232;10.566;2022-12-16T02:04:32;100188.91;;;-8.78;79.54
76853;BME280;65825;52.232;10.566;2022-12-16T02:06:57;100189.00;;;-8.75;79.18
76853;BME280;65825;52.232;10.566;2022-12-16T02:09:23;100184.41;;;-8.83;78.44
76853;BME280;65825;52.232;10.566;2022-12-16T02:14:48;100190.28;;;-8.86;80.04
76853;BME280;65825;52.232;10.566;2022-12-16T02:17:44;100197.25;;;-8.82;80.06
76853;BME280;65825;52.232;10.566;2022-12-16T02:20:26;100198.91;;;-8.84;80.57
76853;BME280;65825;52.232;10.566;2022-12-16T02:26:12;100183.13;;;-8.72;78.66
76853;BME280;65825;52.232;10.566;2022-12-16T02:31:24;100188.91;;;-8.78;78.72
76853;BME280;65825;52.232;10.566;2022-12-16T02:37:10;100188.78;;;-8.81;80.85
76853;BME280;65825;52.232;10.566;2022-12-16T02:39:42;100181.59;;;-8.67;81.65
76853;BME280;65825;52.232;10.566;2022-12-16T02:42:30;100178.59;;;-8.79;79.16
76853;BME280;65825;52.232;10.566;2022-12-16T02:47:32;100177.63;;;-8.83;78.78
76853;BME280;65825;52.232;10.566;2022-12-16T02:49:58;100177.16;;;-8.95;79.55
76853;BME280;65825;52.232;10.566;2022-12-16T02:52:26;100174.03;;;-8.88;79.44
76853;BME280;65825;52.232;10.566;2022-12-16T02:55:01;100169.91;;;-8.84;79.33
76853;BME280;65825;52.232;10.566;2022-12-16T02:58:01;100169.00;;;-8.85;79.03
76853;BME280;65825;52.232;10.566;2022-12-16T03:00:44;100164.72;;;-8.86;79.32
76853;BME280;65825;52.232;10.566;2022-12-16T03:03:21;100168.09;;;-8.87;79.15
76853;BME280;65825;52.232;10.566;2022-12-16T03:05:49;100170.59;;;-8.88;78.80
76853;BME280;65825;52.232;10.566;2022-12-16T03:08:24;100173.84;;;-8.92;79.99
76853;BME280;65825;52.232;10.566;2022-12-16T03:10:56;100171.81;;;-9.01;79.83
76853;BME280;65825;52.232;10.566;2022-12-16T03:13:24;100179.72;;;-8.95;79.76
76853;BME280;65825;52.232;10.566;2022-12-16T03:15:52;100174.09;;;-8.86;80.88
76853;BME280;65825;52.232;10.566;2022-12-16T03:18:20;100181.00;;;-8.84;81.37
76853;BME280;65825;52.232;10.566;2022-12-16T03:20:51;100177.72;;;-8.80;80.92
76853;BME280;65825;52.232;10.566;2022-12-16T03:23:24;100181.09;;;-8.81;79.52
76853;BME280;65825;52.232;10.566;2022-12-16T03:25:53;100180.19;;;-8.83;80.20
76853;BME280;65825;52.232;10.566;2022-12-16T03:33:50;100176.13;;;-9.00;79.43
76853;BME280;65825;52.232;10.566;2022-12-16T03:36:21;100176.25;;;-8.97;79.52
76853;BME280;65825;52.232;10.566;2022-12-16T03:38:49;100176.38;;;-9.16;79.59
76853;BME280;65825;52.232;10.566;2022-12-16T03:41:17;100179.28;;;-9.07;78.83
76853;BME280;65825;52.232;10.566;2022-12-16T03:43:44;100178.13;;;-9.15;78.09
76853;BME280;65825;52.232;10.566;2022-12-16T03:46:10;100176.13;;;-9.22;79.08
76853;BME280;65825;52.232;10.566;2022-12-16T03:48:44;100173.88;;;-9.14;78.95
76853;BME280;65825;52.232;10.566;2022-12-16T03:51:10;100174.56;;;-9.18;78.99
76853;BME280;65825;52.232;10.566;2022-12-16T03:53:35;100176.22;;;-9.20;79.45
76853;BME280;65825;52.232;10.566;2022-12-16T03:56:00;100176.97;;;-9.23;79.16
76853;BME280;65825;52.232;10.566;2022-12-16T03:58:26;100176.59;;;-9.32;78.67
76853;BME280;65825;52.232;10.566;2022-12-16T04:00:51;100179.09;;;-9.33;80.25
76853;BME280;65825;52.232;10.566;2022-12-16T04:03:16;100193.81;;;-9.28;79.65
76853;BME280;65825;52.232;10.566;2022-12-16T04:05:44;100194.78;;;-9.24;79.14
76853;BME280;65825;52.232;10.566;2022-12-16T04:08:09;100191.03;;;-9.34;79.29
76853;BME280;65825;52.232;10.566;2022-12-16T04:10:35;100199.78;;;-9.27;80.38
76853;BME280;65825;52.232;10.566;2022-12-16T04:13:18;100203.34;;;-9.24;80.06
76853;BME280;65825;52.232;10.566;2022-12-16T04:16:02;100207.50;;;-9.26;80.14
76853;BME280;65825;52.232;10.566;2022-12-16T04:18:46;100207.78;;;-9.40;80.61
76853;BME280;65825;52.232;10.566;2022-12-16T04:21:31;100218.75;;;-9.43;79.81
76853;BME280;65825;52.232;10.566;2022-12-16T04:24:17;100216.63;;;-9.32;79.63
76853;BME280;65825;52.232;10.566;2022-12-16T04:26:44;100225.81;;;-9.37;78.57
76853;BME280;65825;52.232;10.566;2022-12-16T04:29:27;100221.50;;;-9.38;78.03
76853;BME280;65825;52.232;10.566;2022-12-16T04:31:53;100224.53;;;-9.47;78.62
76853;BME280;65825;52.232;10.566;2022-12-16T04:34:19;100225.25;;;-9.51;78.89
76853;BME280;65825;52.232;10.566;2022-12-16T04:36:53;100234.59;;;-9.51;78.94
76853;BME280;65825;52.232;10.566;2022-12-16T04:39:37;100233.69;;;-9.53;79.13
76853;BME280;65825;52.232;10.566;2022-12-16T04:42:21;100235.19;;;-9.58;80.14
76853;BME280;65825;52.232;10.566;2022-12-16T04:45:05;100228.44;;;-9.56;79.64
76853;BME280;65825;52.232;10.566;2022-12-16T04:47:49;100240.31;;;-9.57;79.77
76853;BME280;65825;52.232;10.566;2022-12-16T04:50:35;100233.47;;;-9.58;79.78
76853;BME280;65825;52.232;10.566;2022-12-16T04:53:18;100242.63;;;-9.63;79.02
76853;BME280;65825;52.232;10.566;2022-12-16T04:56:02;100239.53;;;-9.56;78.61
76853;BME280;65825;52.232;10.566;2022-12-16T04:58:46;100252.16;;;-9.59;78.24
76853;BME280;65825;52.232;10.566;2022-12-16T05:01:33;100246.91;;;-9.62;79.61
76853;BME280;65825;52.232;10.566;2022-12-16T05:04:17;100241.81;;;-9.62;78.93
76853;BME280;65825;52.232;10.566;2022-12-16T05:07:01;100244.19;;;-9.66;78.32
76853;BME280;65825;52.232;10.566;2022-12-16T05:09:45;100246.00;;;-9.64;78.38
76853;BME280;65825;52.232;10.566;2022-12-16T05:12:28;100248.19;;;-9.52;79.83
76853;BME280;65825;52.232;10.566;2022-12-16T05:15:13;100251.78;;;-9.47;78.33
76853;BME280;65825;52.232;10.566;2022-12-16T05:17:56;100258.56;;;-9.48;78.72
76853;BME280;65825;52.232;10.566;2022-12-16T05:20:40;100242.88;;;-9.57;80.01
76853;BME280;65825;52.232;10.566;2022-12-16T05:23:24;100263.00;;;-9.44;80.13
76853;BME280;65825;52.232;10.566;2022-12-16T05:26:08;100257.38;;;-9.35;78.33
76853;BME280;65825;52.232;10.566;2022-12-16T05:28:52;100264.97;;;-9.37;78.31
76853;BME280;65825;52.232;10.566;2022-12-16T05:31:36;100264.53;;;-9.27;78.99
76853;BME280;65825;52.232;10.566;2022-12-16T05:34:20;100269.84;;;-9.22;79.50
76853;BME280;65825;52.232;10.566;2022-12-16T05:37:04;100277.84;;;-9.13;78.98
76853;BME280;65825;52.232;10.566;2022-12-16T05:39:48;100276.84;;;-9.17;79.75
76853;BME280;65825;52.232;10.566;2022-12-16T05:42:32;100286.25;;;-9.16;79.27
76853;BME280;65825;52.232;10.566;2022-12-16T05:45:15;100292.78;;;-9.24;80.60
76853;BME280;65825;52.232;10.566;2022-12-16T05:48:00;100293.09;;;-9.16;80.42
76853;BME280;65825;52.232;10.566;2022-12-16T05:50:43;100296.00;;;-9.07;79.19
76853;BME280;65825;52.232;10.566;2022-12-16T05:53:27;100293.47;;;-9.06;79.80
76853;BME280;65825;52.232;10.566;2022-12-16T05:56:11;100297.00;;;-9.04;79.56
76853;BME280;65825;52.232;10.566;2022-12-16T05:59:03;100297.44;;;-9.14;80.25
76853;BME280;65825;52.232;10.566;2022-12-16T06:01:46;100303.47;;;-9.12;79.94
76853;BME280;65825;52.232;10.566;2022-12-16T06:04:30;100303.47;;;-9.12;79.52
76853;BME280;65825;52.232;10.566;2022-12-16T06:07:14;100304.91;;;-9.18;80.31
76853;BME280;65825;52.232;10.566;2022-12-16T06:09:58;100301.59;;;-9.16;80.23
76853;BME280;65825;52.232;10.566;2022-12-16T06:12:46;100309.41;;;-9.13;80.32
76853;BME280;65825;52.232;10.566;2022-12-16T06:15:30;100309.84;;;-9.23;79.82
76853;BME280;65825;52.232;10.566;2022-12-16T06:18:14;100314.03;;;-9.25;79.48
76853;BME280;65825;52.232;10.566;2022-12-16T06:20:58;100321.75;;;-9.23;79.61
76853;BME280;65825;52.232;10.566;2022-12-16T06:23:42;100327.72;;;-9.23;79.23
76853;BME280;65825;52.232;10.566;2022-12-16T06:26:26;100330.97;;;-9.27;79.85
76853;BME280;65825;52.232;10.566;2022-12-16T06:29:09;100337.50;;;-9.33;79.95
76853;BME280;65825;52.232;10.566;2022-12-16T06:31:53;100332.34;;;-9.35;78.83
76853;BME280;65825;52.232;10.566;2022-12-16T06:34:37;100340.56;;;-9.42;79.79
76853;BME280;65825;52.232;10.566;2022-12-16T06:37:21;100335.59;;;-9.39;79.73
76853;BME280;65825;52.232;10.566;2022-12-16T06:40:16;100338.22;;;-9.37;79.87
76853;BME280;65825;52.232;10.566;2022-12-16T06:43:00;100344.25;;;-9.35;80.95
76853;BME280;65825;52.232;10.566;2022-12-16T06:45:44;100347.06;;;-9.29;81.00
76853;BME280;65825;52.232;10.566;2022-12-16T06:48:28;100349.97;;;-9.20;79.97
76853;BME280;65825;52.232;10.566;2022-12-16T06:51:11;100354.41;;;-9.16;80.70
76853;BME280;65825;52.232;10.566;2022-12-16T06:53:55;100354.09;;;-9.03;80.99
76853;BME280;65825;52.232;10.566;2022-12-16T06:56:39;100358.66;;;-8.96;81.20
76853;BME280;65825;52.232;10.566;2022-12-16T06:59:23;100361.50;;;-8.89;81.10
76853;BME280;65825;52.232;10.566;2022-12-16T07:02:09;100380.50;;;-8.82;79.93
76853;BME280;65825;52.232;10.566;2022-12-16T07:04:54;100375.09;;;-8.90;79.53
76853;BME280;65825;52.232;10.566;2022-12-16T07:07:38;100389.88;;;-9.03;78.87
76853;BME280;65825;52.232;10.566;2022-12-16T07:10:22;100386.25;;;-9.08;79.61
76853;BME280;65825;52.232;10.566;2022-12-16T07:13:05;100387.81;;;-9.12;79.87
76853;BME280;65825;52.232;10.566;2022-12-16T07:15:49;100388.78;;;-9.10;81.68
76853;BME280;65825;52.232;10.566;2022-12-16T07:18:33;100400.84;;;-9.06;81.52
76853;BME280;65825;52.232;10.566;2022-12-16T07:21:17;100398.66;;;-8.97;80.00
76853;BME280;65825;52.232;10.566;2022-12-16T07:24:01;100407.09;;;-8.99;80.20
76853;BME280;65825;52.232;10.566;2022-12-16T07:26:45;100414.19;;;-8.92;80.32
76853;BME280;65825;52.232;10.566;2022-12-16T07:29:29;100410.19;;;-8.86;78.95
76853;BME280;65825;52.232;10.566;2022-12-16T07:32:13;100417.94;;;-8.84;78.81
76853;BME280;65825;52.232;10.566;2022-12-16T07:34:57;100429.81;;;-8.86;79.32
76853;BME280;65825;52.232;10.566;2022-12-16T07:37:41;100433.66;;;-8.75;78.87
76853;BME280;65825;52.232;10.566;2022-12-16T07:40:25;100433.16;;;-8.67;77.89
76853;BME280;65825;52.232;10.566;2022-12-16T07:43:09;100454.84;;;-8.57;77.49
76853;BME280;65825;52.232;10.566;2022-12-16T07:45:55;100453.25;;;-8.55;77.55
76853;BME280;65825;52.232;10.566;2022-12-16T07:48:40;100463.97;;;-8.21;77.18
76853;BME280;65825;52.232;10.566;2022-12-16T07:51:24;100463.88;;;-8.01;76.66
76853;BME280;65825;52.232;10.566;2022-12-16T07:54:07;100466.53;;;-7.76;76.23
76853;BME280;65825;52.232;10.566;2022-12-16T07:56:51;100478.22;;;-7.60;76.65
76853;BME280;65825;52.232;10.566;2022-12-16T07:59:35;100476.38;;;-7.41;76.70
76853;BME280;65825;52.232;10.566;2022-12-16T08:02:19;100479.31;;;-7.07;75.82
76853;BME280;65825;52.232;10.566;2022-12-16T08:05:03;100483.00;;;-6.99;76.79
76853;BME280;65825;52.232;10.566;2022-12-16T08:07:47;100487.66;;;-6.87;75.13
76853;BME280;65825;52.232;10.566;2022-12-16T08:10:38;100489.41;;;-6.61;74.99
76853;BME280;65825;52.232;10.566;2022-12-16T08:13:23;100493.91;;;-6.54;75.38
76853;BME280;65825;52.232;10.566;2022-12-16T08:16:07;100496.97;;;-6.41;75.14
76853;BME280;65825;52.232;10.566;2022-12-16T08:18:51;100503.69;;;-6.18;75.59
76853;BME280;65825;52.232;10.566;2022-12-16T08:21:35;100509.94;;;-6.10;74.38
76853;BME280;65825;52.232;10.566;2022-12-16T08:24:19;100513.56;;;-6.03;74.96
76853;BME280;65825;52.232;10.566;2022-12-16T08:27:03;100518.75;;;-5.72;75.25
76853;BME280;65825;52.232;10.566;2022-12-16T08:29:47;100524.31;;;-5.59;74.53
76853;BME280;65825;52.232;10.566;2022-12-16T08:32:31;100525.81;;;-5.37;74.01
76853;BME280;65825;52.232;10.566;2022-12-16T08:35:15;100532.28;;;-5.22;74.00
76853;BME280;65825;52.232;10.566;2022-12-16T08:37:59;100541.16;;;-5.11;73.01
76853;BME280;65825;52.232;10.566;2022-12-16T08:40:43;100544.91;;;-5.00;74.74
76853;BME280;65825;52.232;10.566;2022-12-16T08:43:33;100548.38;;;-4.98;74.93
76853;BME280;65825;52.232;10.566;2022-12-16T08:46:17;100535.66;;;-4.93;74.67
76853;BME280;65825;52.232;10.566;2022-12-16T08:49:01;100535.97;;;-4.81;74.11
76853;BME280;65825;52.232;10.566;2022-12-16T08:51:45;100543.56;;;-4.55;72.96
76853;BME280;65825;52.232;10.566;2022-12-16T08:54:29;100552.69;;;-4.33;72.49
76853;BME280;65825;52.232;10.566;2022-12-16T08:57:13;100553.63;;;-4.30;72.72
76853;BME280;65825;52.232;10.566;2022-12-16T08:59:57;100552.09;;;-4.23;72.31
76853;BME280;65825;52.232;10.566;2022-12-16T09:02:40;100562.69;;;-4.13;72.67
76853;BME280;65825;52.232;10.566;2022-12-16T09:05:25;100561.19;;;-4.03;72.33
76853;BME280;65825;52.232;10.566;2022-12-16T09:08:09;100560.34;;;-4.02;72.75
76853;BME280;65825;52.232;10.566;2022-12-16T09:10:52;100563.72;;;-4.05;72.98
76853;BME280;65825;52.232;10.566;2022-12-16T09:13:36;100557.72;;;-4.04;73.41
76853;BME280;65825;52.232;10.566;2022-12-16T09:16:20;100562.59;;;-3.80;73.17
76853;BME280;65825;52.232;10.566;2022-12-16T09:19:04;100560.97;;;-3.77;72.44
76853;BME280;65825;52.232;10.566;2022-12-16T09:21:48;100568.06;;;-3.68;72.86
76853;BME280;65825;52.232;10.566;2022-12-16T09:24:32;100557.28;;;-3.51;71.76
76853;BME280;65825;52.232;10.566;2022-12-16T09:27:16;100567.72;;;-3.45;72.40
76853;BME280;65825;52.232;10.566;2022-12-16T09:30:00;100573.53;;;-3.55;72.28
76853;BME280;65825;52.232;10.566;2022-12-16T09:32:44;100571.19;;;-3.43;71.91
76853;BME280;65825;52.232;10.566;2022-12-16T09:35:29;100574.59;;;-3.45;72.51
76853;BME280;65825;52.232;10.566;2022-12-16T09:38:13;100573.09;;;-3.34;72.59
76853;BME280;65825;52.232;10.566;2022-12-16T09:40:59;100580.22;;;-3.24;72.29
76853;BME280;65825;52.232;10.566;2022-12-16T09:44:17;100576.78;;;-3.25;72.58
76853;BME280;65825;52.232;10.566;2022-12-16T09:47:13;100583.75;;;-3.19;72.03
76853;BME280;65825;52.232;10.566;2022-12-16T09:50:01;100581.56;;;-3.01;72.09
76853;BME280;65825;52.232;10.566;2022-12-16T09:52:48;100580.94;;;-2.90;71.74
76853;BME280;65825;52.232;10.566;2022-12-16T09:55:39;100580.13;;;-2.87;71.93
76853;BME280;65825;52.232;10.566;2022-12-16T09:58:30;100587.13;;;-2.82;71.73
76853;BME280;65825;52.232;10.566;2022-12-16T10:01:17;100577.84;;;-2.74;72.10
76853;BME280;65825;52.232;10.566;2022-12-16T10:04:02;100577.22;;;-2.61;71.17
76853;BME280;65825;52.232;10.566;2022-12-16T10:06:48;100578.75;;;-2.70;73.10
76853;BME280;65825;52.232;10.566;2022-12-16T10:12:45;100582.81;;;-2.38;71.56
76853;BME280;65825;52.232;10.566;2022-12-16T10:16:12;100589.00;;;-2.29;71.23
76853;BME280;65825;52.232;10.566;2022-12-16T10:19:17;100590.59;;;-2.37;72.09
76853;BME280;65825;52.232;10.566;2022-12-16T10:25:22;100595.38;;;-2.12;72.13
76853;BME280;65825;52.232;10.566;2022-12-16T10:28:18;100593.66;;;-2.10;71.63
76853;BME280;65825;52.232;10.566;2022-12-16T10:31:11;100595.59;;;-1.97;72.10
76853;BME280;65825;52.232;10.566;2022-12-16T10:33:55;100590.41;;;-1.97;71.20
76853;BME280;65825;52.232;10.566;2022-12-16T10:36:40;100593.06;;;-1.94;71.69
76853;BME280;65825;52.232;10.566;2022-12-16T10:39:33;100599.41;;;-1.75;71.84
76853;BME280;65825;52.232;10.566;2022-12-16T10:42:25;100604.78;;;-1.63;71.51
76853;BME280;65825;52.232;10.566;2022-12-16T10:45:23;100602.22;;;-1.62;71.04
76853;BME280;65825;52.232;10.566;2022-12-16T10:48:10;100605.66;;;-1.63;71.30
76853;BME280;65825;52.232;10.566;2022-12-16T10:50:54;100610.88;;;-1.61;71.57
76853;BME280;65825;52.232;10.566;2022-12-16T10:53:38;100602.31;;;-1.56;71.33
76853;BME280;65825;52.232;10.566;2022-12-16T10:59:18;100611.22;;;-1.38;71.28
76853;BME280;65825;52.232;10.566;2022-12-16T11:02:25;100611.34;;;-1.28;70.82
76853;BME280;65825;52.232;10.566;2022-12-16T11:05:40;100614.16;;;-1.13;70.42
76853;BME280;65825;52.232;10.566;2022-12-16T11:08:30;100602.09;;;-1.13;70.29
76853;BME280;65825;52.232;10.566;2022-12-16T11:11:21;100605.63;;;-1.08;71.86
76853;BME280;65825;52.232;10.566;2022-12-16T11:14:29;100604.06;;;-0.94;70.24
76853;BME280;65825;52.232;10.566;2022-12-16T11:17:19;100613.63;;;-0.88;70.39
76853;BME280;65825;52.232;10.566;2022-12-16T11:20:14;100604.19;;;-0.85;70.96
76853;BME280;65825;52.232;10.566;2022-12-16T11:23:20;100606.06;;;-0.71;69.38
76853;BME280;65825;52.232;10.566;2022-12-16T11:26:22;100594.97;;;-0.62;70.40
76853;BME280;65825;52.232;10.566;2022-12-16T11:29:16;100601.16;;;-0.51;69.76
76853;BME280;65825;52.232;10.566;2022-12-16T11:32:19;100608.25;;;-0.33;69.71
76853;BME280;65825;52.232;10.566;2022-12-16T11:35:08;100611.69;;;-0.36;69.93
76853;BME280;65825;52.232;10.566;2022-12-16T11:37:54;100609.13;;;-0.29;70.10
76853;BME280;65825;52.232;10.566;2022-12-16T11:40:40;100612.75;;;-0.15;69.31
76853;BME280;65825;52.232;10.566;2022-12-16T11:43:26;100609.28;;;-0.17;69.49
76853;BME280;65825;52.232;10.566;2022-12-16T11:46:20;100613.78;;;0.04;69.43
76853;BME280;65825;52.232;10.566;2022-12-16T11:49:15;100616.44;;;0.10;69.38
76853;BME280;65825;52.232;10.566;2022-12-16T11:52:02;100611.34;;;0.19;68.84
76853;BME280;65825;52.232;10.566;2022-12-16T11:58:03;100624.38;;;0.23;68.89
76853;BME280;65825;52.232;10.566;2022-12-16T12:00:57;100622.69;;;0.28;68.89
76853;BME280;65825;52.232;10.566;2022-12-16T12:03:44;100624.34;;;0.22;69.50
76853;BME280;65825;52.232;10.566;2022-12-16T12:07:00;100622.75;;;0.37;69.56
76853;BME280;65825;52.232;10.566;2022-12-16T12:09:56;100622.81;;;0.46;68.67
76853;BME280;65825;52.232;10.566;2022-12-16T12:12:51;100628.00;;;0.42;nan
76853;BME280;65825;52.232;10.566;2022-12-16T12:16:10;100629.81;;;0.52;69.31
76853;BME280;65825;52.232;10.566;2022-12-16T12:24:40;100625.53;;;0.64;69.27
76853;BME280;65825;52.232;10.566;2022-12-16T12:34:06;100629.06;;;0.71;69.65
76853;BME280;65825;52.232;10.566;2022-12-16T12:40:18;100641.28;;;0.87;68.94
76853;BME280;65825;52.232;10.566;2022-12-16T12:43:16;100635.28;;;0.94;68.68
76853;BME280;65825;52.232;10.566;2022-12-16T12:46:11;100636.97;;;0.92;69.44
76853;BME280;65825;52.232;10.566;2022-12-16T12:49:21;100642.22;;;0.99;68.88
76853;BME280;65825;52.232;10.566;2022-12-16T12:58:37;100653.47;;;0.94;68.67
76853;BME280;65825;52.232;10.566;2022-12-16T13:01:25;100659.56;;;1.02;68.92
76853;BME280;65825;52.232;10.566;2022-12-16T13:04:16;100659.50;;;0.90;69.30
76853;BME280;65825;52.232;10.566;2022-12-16T13:07:01;100657.78;;;0.92;69.08
76853;BME280;65825;52.232;10.566;2022-12-16T13:15:59;100656.09;;;1.03;69.07
76853;BME280;65825;52.232;10.566;2022-12-16T13:18:45;100662.09;;;0.88;70.60
76853;BME280;65825;52.232;10.566;2022-12-16T13:24:39;100663.81;;;0.86;70.23
76853;BME280;65825;52.232;10.566;2022-12-16T13:27:26;100679.34;;;0.82;70.21
76853;BME280;65825;52.232;10.566;2022-12-16T13:32:59;100678.44;;;0.74;70.35
76853;BME280;65825;52.232;10.566;2022-12-16T13:35:54;100680.13;;;0.67;71.14
76853;BME280;65825;52.232;10.566;2022-12-16T13:38:47;100685.28;;;0.63;71.34
76853;BME280;65825;52.232;10.566;2022-12-16T13:50:48;100696.13;;;0.20;73.88
76853;BME280;65825;52.232;10.566;2022-12-16T13:53:41;100701.41;;;0.26;73.85
76853;BME280;65825;52.232;10.566;2022-12-16T13:56:33;100703.00;;;0.13;74.34
76853;BME280;65825;52.232;10.566;2022-12-16T13:59:21;100707.47;;;0.31;73.38
76853;BME280;65825;52.232;10.566;2022-12-16T14:02:29;100714.28;;;0.20;73.85
76853;BME280;65825;52.232;10.566;2022-12-16T14:05:23;100717.63;;;0.05;74.78
76853;BME280;65825;52.232;10.566;2022-12-16T14:08:14;100725.53;;;0.16;74.69
76853;BME280;65825;52.232;10.566;2022-12-16T14:11:02;100723.72;;;0.10;74.73
76853;BME280;65825;52.232;10.566;2022-12-16T14:13:57;100725.34;;;0.02;75.44
76853;BME280;65825;52.232;10.566;2022-12-16T14:22:50;100748.47;;;-0.20;77.03
76853;BME280;65825;52.232;10.566;2022-12-16T14:25:38;100755.38;;;-0.19;76.73
76853;BME280;65825;52.232;10.566;2022-12-16T14:28:34;100751.00;;;-0.23;76.77
76853;BME280;65825;52.232;10.566;2022-12-16T14:31:26;100748.25;;;-0.37;77.48
76853;BME280;65825;52.232;10.566;2022-12-16T14:34:17;100769.88;;;-0.33;77.17
76853;BME280;65825;52.232;10.566;2022-12-16T14:37:12;100767.28;;;-0.36;77.42
76853;BME280;65825;52.232;10.566;2022-12-16T14:39:56;100772.25;;;-0.50;78.31
76853;BME280;65825;52.232;10.566;2022-12-16T14:42:41;100775.69;;;-0.53;78.66
76853;BME280;65825;52.232;10.566;2022-12-16T14:45:33;100779.88;;;-0.62;78.65
76853;BME280;65825;52.232;10.566;2022-12-16T14:48:25;100787.63;;;-0.63;78.51
76853;BME280;65825;52.232;10.566;2022-12-16T14:51:29;100786.63;;;-0.73;79.21
76853;BME280;65825;52.232;10.566;2022-12-16T14:57:22;100790.06;;;-0.73;79.12
76853;BME280;65825;52.232;10.566;2022-12-16T15:02:52;100785.59;;;-0.83;79.07
76853;BME280;65825;52.232;10.566;2022-12-16T15:05:37;100792.47;;;-0.84;79.54
76853;BME280;65825;52.232;10.566;2022-12-16T15:08:23;100796.81;;;-0.83;79.50
76853;BME280;65825;52.232;10.566;2022-12-16T15:11:11;100801.03;;;-0.89;80.32
76853;BME280;65825;52.232;10.566;2022-12-16T15:14:00;100806.88;;;-1.01;79.84
76853;BME280;65825;52.232;10.566;2022-12-16T15:16:46;100810.28;;;-1.05;80.85
76853;BME280;65825;52.232;10.566;2022-12-16T15:19:38;100811.13;;;-1.06;80.47
76853;BME280;65825;52.232;10.566;2022-12-16T15:22:25;100814.59;;;-1.04;80.59
76853;BME280;65825;52.232;10.566;2022-12-16T15:25:23;100811.88;;;-1.13;81.10
76853;BME280;65825;52.232;10.566;2022-12-16T15:28:48;100816.31;;;-1.06;79.76